Аэропорт: Наримановка. Костанай

ICAO: UAUU

METAR:
2021-04-21 21:30:00
UAUU 212130Z 18002MPS CAVOK 01/M03 Q1033 R33/CLRD60 NOSIG RMK QFE759/1012
METAR:
2021-04-21 20:00:00
TAF UAUU 212000Z 2121/2206 21003MPS 9999 NSC TEMPO 2121/2206 VRB01MPS